Airfield :
LOGIN :

Register | Disclaimer

   EN    FR    IT 

 










Legend :    VFR   Marginal VFR   IFR   Intensive IFR   Very Intensive IFR
Visi :
Ceiling :
>= 8 km
>= 3000ft
5 to 8 km
1000 to 3000 ft
1500m to 5 km
500 to 1000 ft
800 to 1500m
200 to 500 ft
< 800m
< 200 ft
Symbols :   Thunderstorms  Fog  Heavy snow  Heavy precipitations  Wind > 20 kt
SIGMETs :     Misc.  Thunderstorms  Icing  Turbulence  Mountain Waves  Volcanic Ashes







- Airport Elevation : 1106 ft
- Download approach charts


LFSO - Nancy / Ochey

CURRENT METAR :
  • 270000Z AUTO VRB02KT 9999 -RA ///TCU 19/16 Q1011

EXPIRED METARs :
  • 262330Z AUTO VRB01KT 9999 ///TCU 19/16 Q1011
  • 262300Z AUTO 17004KT 140V200 9999 ///TCU 20/15 Q1011
  • 262230Z AUTO 09003KT 9999 ///TCU 21/15 Q1011
  • 262200Z AUTO 10005KT 060V140 CAVOK 21/15 Q1011
  • 262130Z AUTO VRB03KT 9999 ///TCU 21/15 Q1011

TAF TAF LFSO
Valid from the 26 at 15:00 until the 27 at 15:00 UTC


261400Z 2615/2715 07005KT CAVOK
PROB40
TEMPO 2617/2707 VRB15G25KT 3500 TSRA SCT030 SCT060CB OVC080
PROB30
TEMPO 2703/2706 BKN007 BKN015TCU
TEMPO 2709/2715 VRB15G25KT 3000 TSRA BKN015 BKN030CB
No reported NOTAMs for that airfield.
1 SIGMET reported for the Reims FIR (LFEE) :
 
Embedded thunderstorms
LFEE SIGMET 3 VALID 262230/270130 LFPW
LFEE REIMS FIR/UIR EMBD TS FCST WI N4800 E00515 - N4830 E00530 - N4900 E00445 - N4930 E00600 - N4915 E00700 - N4830 E00730 TOP FL390 MOV N 10KT WKN=



MET'MAP, your aeronautical weather chart ! - Copyright ORBIFLY December 2007 - Disclaimer

ORBIFLY MET'MAP TEAM :

Programming & Development : Alexandra Zaïnal
Concept & Development : Baudouin d'Aumeries
Co-Development & Prog : Marc-Olivier Méhu
Technical & hardware support : Manuel Goepfert

Contact : metmap@orbifly.com




SOURCES & CREDITS :

   NOAA